createdAt,value
2022-10-18T00:00:25.673Z,72.64
2022-10-18T00:03:14.369Z,73.11
2022-10-18T00:05:43.273Z,73.12
2022-10-18T00:08:11.755Z,73.17
2022-10-18T00:10:40.220Z,73.38
2022-10-18T00:13:08.688Z,73.61
2022-10-18T00:15:37.397Z,72.10
2022-10-18T00:18:06.112Z,72.81
2022-10-18T00:20:34.729Z,72.99
2022-10-18T00:23:03.184Z,72.57
2022-10-18T00:25:31.570Z,73.31
2022-10-18T00:28:01.379Z,72.92
2022-10-18T00:30:29.761Z,73.06
2022-10-18T00:32:58.181Z,73.52
2022-10-18T00:35:30.547Z,72.94
2022-10-18T00:38:00.756Z,73.82
2022-10-18T00:40:29.996Z,73.58
2022-10-18T00:42:59.551Z,72.44
2022-10-18T00:45:28.207Z,72.94
2022-10-18T00:48:00.306Z,73.92
2022-10-18T00:50:33.337Z,73.02
2022-10-18T00:53:04.977Z,73.00
2022-10-18T00:55:34.594Z,72.82
2022-10-18T00:58:04.522Z,73.71
2022-10-18T01:00:34.388Z,72.20
2022-10-18T01:03:03.377Z,72.70
2022-10-18T01:05:32.197Z,72.56
2022-10-18T01:08:18.756Z,72.09
2022-10-18T01:10:54.505Z,72.71
2022-10-18T01:13:35.604Z,73.11
2022-10-18T01:16:12.069Z,72.27
2022-10-18T01:18:48.844Z,72.68
2022-10-18T01:21:32.544Z,71.74
2022-10-18T01:24:44.489Z,72.81
2022-10-18T01:27:38.365Z,72.76
2022-10-18T01:30:47.544Z,71.76
2022-10-18T01:33:26.572Z,71.73
2022-10-18T01:36:00.968Z,71.96
2022-10-18T01:38:32.225Z,71.83
2022-10-18T01:41:04.294Z,72.23
2022-10-18T01:43:35.166Z,72.00
2022-10-18T01:46:05.628Z,71.72
2022-10-18T01:48:37.743Z,72.56
2022-10-18T01:51:07.296Z,71.45
2022-10-18T01:53:36.105Z,72.29
2022-10-18T01:56:32.455Z,71.48
2022-10-18T01:59:22.920Z,71.43
2022-10-18T02:02:00.924Z,71.88
2022-10-18T02:04:41.185Z,71.34
2022-10-18T02:07:23.497Z,72.04
2022-10-18T02:10:02.069Z,71.26
2022-10-18T02:12:33.758Z,70.89
2022-10-18T02:15:04.972Z,71.35
2022-10-18T02:17:33.738Z,71.67
2022-10-18T02:20:05.482Z,70.98
2022-10-18T02:22:35.372Z,71.71
2022-10-18T02:25:09.995Z,71.33
2022-10-18T02:27:39.655Z,70.86
2022-10-18T02:30:12.007Z,71.48
2022-10-18T02:32:44.593Z,71.04
2022-10-18T02:35:20.670Z,71.70
2022-10-18T02:37:51.866Z,72.09
2022-10-18T02:40:23.207Z,71.24
2022-10-18T02:42:55.512Z,71.79
2022-10-18T02:45:24.676Z,71.04
2022-10-18T02:47:53.326Z,72.05
2022-10-18T02:50:22.292Z,71.47
2022-10-18T02:52:50.789Z,71.11
2022-10-18T02:55:19.929Z,71.44
2022-10-18T02:57:48.559Z,71.16
2022-10-18T03:00:17.721Z,71.38
2022-10-18T03:02:46.223Z,71.62
2022-10-18T03:05:14.835Z,70.79
2022-10-18T03:07:44.744Z,71.68
2022-10-18T03:10:13.219Z,70.72
2022-10-18T03:12:41.805Z,71.28
2022-10-18T03:15:11.282Z,71.20
2022-10-18T03:17:39.905Z,71.42
2022-10-18T03:20:10.722Z,70.60
2022-10-18T03:22:39.066Z,71.25
2022-10-18T03:25:08.843Z,70.79
2022-10-18T03:27:37.425Z,70.75
2022-10-18T03:30:08.096Z,71.22
2022-10-18T03:32:36.572Z,70.81
2022-10-18T03:35:06.124Z,71.27
2022-10-18T03:37:34.934Z,71.36
2022-10-18T03:40:04.518Z,71.34
2022-10-18T03:42:33.159Z,71.36
2022-10-18T03:45:02.023Z,71.21
2022-10-18T03:47:33.903Z,70.93
2022-10-18T03:50:02.856Z,71.21
2022-10-18T03:52:31.828Z,71.56
2022-10-18T03:55:03.108Z,71.28
2022-10-18T03:57:31.570Z,71.22
2022-10-18T04:00:03.771Z,71.25
2022-10-18T04:02:40.938Z,71.39
2022-10-18T04:05:10.341Z,70.61
2022-10-18T04:07:41.905Z,70.51
2022-10-18T04:10:10.793Z,71.19
2022-10-18T04:12:39.556Z,70.42
2022-10-18T04:15:10.672Z,70.76
2022-10-18T04:17:39.418Z,70.13
2022-10-18T04:20:09.718Z,71.33
2022-10-18T04:22:38.368Z,70.84
2022-10-18T04:25:07.898Z,69.87
2022-10-18T04:27:36.449Z,70.98
2022-10-18T04:30:06.933Z,70.61
2022-10-18T04:32:35.422Z,70.84
2022-10-18T04:35:04.735Z,70.56
2022-10-18T04:37:33.742Z,69.97
2022-10-18T04:40:08.854Z,70.48
2022-10-18T04:42:37.542Z,70.64
2022-10-18T04:45:08.049Z,70.86
2022-10-18T04:47:36.454Z,70.76
2022-10-18T04:50:06.370Z,70.75
2022-10-18T04:52:34.744Z,70.88
2022-10-18T04:55:03.538Z,70.07
2022-10-18T04:57:32.185Z,70.46
2022-10-18T05:00:02.403Z,70.10
2022-10-18T05:02:31.260Z,70.34
2022-10-18T05:05:02.391Z,70.83
2022-10-18T05:07:31.138Z,70.68
2022-10-18T05:10:02.054Z,69.99
2022-10-18T05:12:30.861Z,69.77
2022-10-18T05:15:02.002Z,70.21
2022-10-18T05:17:30.680Z,69.45
2022-10-18T05:20:02.607Z,69.54
2022-10-18T05:22:31.649Z,70.27
2022-10-18T05:25:05.192Z,69.43
2022-10-18T05:27:34.020Z,70.09
2022-10-18T05:30:05.646Z,70.34
2022-10-18T05:32:35.010Z,70.21
2022-10-18T05:35:03.730Z,70.47
2022-10-18T05:37:32.107Z,70.69
2022-10-18T05:40:01.308Z,69.74
2022-10-18T05:42:30.021Z,69.88
2022-10-18T05:45:00.611Z,69.87
2022-10-18T05:47:29.354Z,69.62
2022-10-18T05:49:57.875Z,70.49
2022-10-18T05:52:27.687Z,70.26
2022-10-18T05:54:56.114Z,70.29
2022-10-18T05:57:24.550Z,69.76
2022-10-18T05:59:53.041Z,69.87
2022-10-18T06:02:21.582Z,70.38
2022-10-18T06:04:52.825Z,69.67
2022-10-18T06:07:21.379Z,70.36
2022-10-18T06:09:49.999Z,69.43
2022-10-18T06:12:18.660Z,69.92
2022-10-18T06:14:48.913Z,70.18
2022-10-18T06:17:17.376Z,70.27
2022-10-18T06:19:49.003Z,69.41
2022-10-18T06:22:17.667Z,69.52
2022-10-18T06:24:46.162Z,69.30
2022-10-18T06:27:15.121Z,69.25
2022-10-18T06:29:43.878Z,69.74
2022-10-18T06:32:12.413Z,70.24
2022-10-18T06:34:44.135Z,69.24
2022-10-18T06:37:16.828Z,69.95
2022-10-18T06:39:45.375Z,69.57
2022-10-18T06:42:14.800Z,69.15
2022-10-18T06:44:45.568Z,69.67
2022-10-18T06:47:14.051Z,69.15
2022-10-18T06:49:45.605Z,69.55
2022-10-18T06:52:16.489Z,68.65
2022-10-18T06:54:45.508Z,69.23
2022-10-18T06:57:14.178Z,68.84
2022-10-18T06:59:45.469Z,69.06
2022-10-18T07:02:17.124Z,68.93
2022-10-18T07:04:46.002Z,68.91
2022-10-18T07:07:17.209Z,69.14
2022-10-18T07:09:45.600Z,68.96
2022-10-18T07:12:17.304Z,68.64
2022-10-18T07:14:46.792Z,68.52
2022-10-18T07:17:15.243Z,68.37
2022-10-18T07:19:47.142Z,68.02
2022-10-18T07:22:15.593Z,67.91
2022-10-18T07:24:44.102Z,68.23
2022-10-18T07:27:12.700Z,67.88
2022-10-18T07:29:43.565Z,67.79
2022-10-18T07:32:12.130Z,68.21
2022-10-18T07:34:46.999Z,68.02
2022-10-18T07:37:15.390Z,67.53
2022-10-18T07:39:43.993Z,67.09
2022-10-18T07:42:12.458Z,66.95
2022-10-18T07:44:40.857Z,66.42
2022-10-18T07:47:09.440Z,66.55
2022-10-18T07:49:37.870Z,66.23
2022-10-18T07:52:06.729Z,66.50
2022-10-18T07:54:35.394Z,65.87
2022-10-18T07:57:05.402Z,65.95
2022-10-18T07:59:33.996Z,65.97
2022-10-18T08:02:02.404Z,66.01
2022-10-18T08:04:33.647Z,65.91
2022-10-18T08:07:02.084Z,65.88
2022-10-18T08:09:30.639Z,65.46
2022-10-18T08:12:00.230Z,65.41
2022-10-18T08:14:29.071Z,65.28
2022-10-18T08:16:57.885Z,65.16
2022-10-18T08:19:28.540Z,65.00
2022-10-18T08:21:57.169Z,65.39
2022-10-18T08:24:25.963Z,65.22
2022-10-18T08:26:54.983Z,64.82
2022-10-18T08:29:29.234Z,64.97
2022-10-18T08:32:01.266Z,64.83
2022-10-18T08:34:30.008Z,64.69
2022-10-18T08:37:00.107Z,64.85
2022-10-18T08:39:28.731Z,64.95
2022-10-18T08:42:21.600Z,64.73
2022-10-18T08:44:52.301Z,64.79
2022-10-18T08:47:23.007Z,64.54
2022-10-18T08:49:54.319Z,64.51
2022-10-18T08:52:34.185Z,63.93
2022-10-18T08:55:09.714Z,63.18
2022-10-18T08:57:38.203Z,62.83
2022-10-18T09:00:15.982Z,61.24
2022-10-18T09:02:58.102Z,58.74
2022-10-18T09:05:39.856Z,57.98
2022-10-18T09:08:33.614Z,58.09
2022-10-18T09:11:15.676Z,56.43
2022-10-18T09:14:05.367Z,56.55
2022-10-18T09:16:45.661Z,56.56
2022-10-18T09:19:27.330Z,55.62
2022-10-18T09:22:03.973Z,55.07
2022-10-18T09:24:42.638Z,54.04
2022-10-18T09:27:16.042Z,52.34
2022-10-18T09:29:54.354Z,51.50
2022-10-18T09:32:30.269Z,51.13
2022-10-18T09:35:05.599Z,50.71
2022-10-18T09:37:35.011Z,51.38
2022-10-18T09:40:18.152Z,51.61
2022-10-18T09:42:55.660Z,51.39
2022-10-18T09:45:29.110Z,51.61
2022-10-18T09:48:02.884Z,51.23
2022-10-18T09:50:36.921Z,51.37
2022-10-18T09:53:18.099Z,51.73
2022-10-18T09:56:00.653Z,51.70
2022-10-18T09:58:43.671Z,52.34
2022-10-18T10:01:15.493Z,52.92
2022-10-18T10:03:45.104Z,53.30
2022-10-18T10:06:25.029Z,53.62
2022-10-18T10:09:07.058Z,53.43
2022-10-18T10:11:39.617Z,53.05
2022-10-18T10:16:51.548Z,52.98
2022-10-18T10:19:26.777Z,53.22
2022-10-18T10:22:00.701Z,53.01
2022-10-18T10:24:49.347Z,52.74
2022-10-18T10:27:21.499Z,53.01
2022-10-18T10:30:06.778Z,53.33
2022-10-18T10:32:47.667Z,53.12
2022-10-18T10:35:53.435Z,53.19
2022-10-18T10:38:27.117Z,52.94
2022-10-18T10:40:56.590Z,52.83
2022-10-18T10:43:43.537Z,53.14
2022-10-18T10:46:15.108Z,52.49
2022-10-18T10:48:49.862Z,52.41
2022-10-18T10:51:30.297Z,53.32
2022-10-18T10:54:05.110Z,53.00
2022-10-18T10:56:36.213Z,52.58
2022-10-18T10:59:14.301Z,53.03
2022-10-18T11:01:43.409Z,52.68
2022-10-18T11:04:27.606Z,53.26
2022-10-18T11:07:06.889Z,52.82
2022-10-18T11:09:49.043Z,52.62
2022-10-18T11:12:33.123Z,52.76
2022-10-18T11:15:18.589Z,52.66
2022-10-18T11:17:55.811Z,52.98
2022-10-18T11:20:30.179Z,53.03
2022-10-18T11:23:06.093Z,53.11
2022-10-18T11:26:10.525Z,52.64
2022-10-18T11:28:45.965Z,53.28
2022-10-18T11:31:22.896Z,53.28
2022-10-18T11:34:12.519Z,53.98
2022-10-18T11:37:09.654Z,54.25
2022-10-18T11:39:58.016Z,54.49
2022-10-18T11:42:40.006Z,54.05
2022-10-18T11:45:27.866Z,54.26
2022-10-18T11:48:12.309Z,54.48
2022-10-18T11:50:50.996Z,54.75
2022-10-18T11:53:33.042Z,54.45
2022-10-18T11:56:10.826Z,54.66
2022-10-18T11:58:56.512Z,54.64
2022-10-18T12:01:38.586Z,55.20
2022-10-18T12:04:13.627Z,54.98
2022-10-18T12:06:44.200Z,55.14
2022-10-18T12:09:24.088Z,54.76
2022-10-18T12:11:58.364Z,55.43
2022-10-18T12:14:35.293Z,55.33
2022-10-18T12:17:40.807Z,55.42
2022-10-18T12:20:16.921Z,55.46
2022-10-18T12:22:54.379Z,55.53
2022-10-18T12:25:28.935Z,55.70
2022-10-18T12:28:07.873Z,55.43
2022-10-18T12:30:45.744Z,55.41
2022-10-18T12:33:28.238Z,55.44
2022-10-18T12:36:06.535Z,55.68
2022-10-18T12:38:37.856Z,55.86
2022-10-18T12:41:07.785Z,55.65
2022-10-18T12:43:45.449Z,55.94
2022-10-18T12:46:14.112Z,55.84
2022-10-18T12:48:45.106Z,55.21
2022-10-18T12:51:18.669Z,55.80
2022-10-18T12:53:52.141Z,55.81
2022-10-18T12:56:41.914Z,55.72
2022-10-18T12:59:44.110Z,56.21
2022-10-18T13:02:31.502Z,56.15
2022-10-18T13:05:33.770Z,56.34
2022-10-18T13:08:40.256Z,56.52
2022-10-18T13:11:32.953Z,56.21
2022-10-18T13:14:30.485Z,56.35
2022-10-18T13:17:07.183Z,56.84
2022-10-18T13:19:58.057Z,57.08
2022-10-18T13:22:53.807Z,57.03
2022-10-18T13:25:28.434Z,57.18
2022-10-18T13:28:05.435Z,57.34
2022-10-18T13:30:54.648Z,57.27
2022-10-18T13:33:35.156Z,57.66
2022-10-18T13:36:22.929Z,57.56
2022-10-18T13:39:06.436Z,57.70
2022-10-18T13:42:13.167Z,57.61
2022-10-18T13:44:45.852Z,57.72
2022-10-18T13:47:31.997Z,57.58
2022-10-18T13:53:21.611Z,57.79
2022-10-18T13:56:08.148Z,57.72
2022-10-18T13:59:05.799Z,57.60
2022-10-18T14:01:54.235Z,58.02
2022-10-18T14:04:47.473Z,58.35
2022-10-18T14:07:19.110Z,58.07
2022-10-18T14:09:54.998Z,58.75
2022-10-18T14:12:28.968Z,58.89
2022-10-18T14:15:05.822Z,58.43
2022-10-18T14:17:41.808Z,58.84
2022-10-18T14:20:28.711Z,58.97
2022-10-18T14:23:06.694Z,58.60
2022-10-18T14:25:39.847Z,58.65
2022-10-18T14:28:14.223Z,58.75
2022-10-18T14:30:54.776Z,59.00
2022-10-18T14:33:30.031Z,59.26
2022-10-18T14:36:28.555Z,59.31
2022-10-18T14:39:01.695Z,59.45
2022-10-18T14:41:34.937Z,59.90
2022-10-18T14:44:19.158Z,59.45
2022-10-18T14:46:50.029Z,59.97
2022-10-18T14:49:20.510Z,59.97
2022-10-18T14:51:52.992Z,60.18
2022-10-18T14:54:27.538Z,60.23
2022-10-18T14:57:03.420Z,60.35
2022-10-18T14:59:38.044Z,60.72
2022-10-18T15:02:14.602Z,61.14
2022-10-18T15:04:46.574Z,60.91
2022-10-18T15:07:17.568Z,61.14
2022-10-18T15:09:47.093Z,61.30
2022-10-18T15:12:17.626Z,61.63
2022-10-18T15:14:47.915Z,61.83
2022-10-18T15:17:21.239Z,62.22
2022-10-18T15:20:00.460Z,62.28
2022-10-18T15:22:35.423Z,62.09
2022-10-18T15:25:20.078Z,62.31
2022-10-18T15:27:51.382Z,62.66
2022-10-18T15:30:25.086Z,62.73
2022-10-18T15:32:55.166Z,62.80
2022-10-18T15:35:27.546Z,62.99
2022-10-18T15:37:57.397Z,63.14
2022-10-18T15:40:38.458Z,63.40
2022-10-18T15:43:36.449Z,63.87
2022-10-18T15:46:07.394Z,63.74
2022-10-18T15:48:39.609Z,63.84
2022-10-18T15:51:19.240Z,64.08
2022-10-18T15:53:53.309Z,64.33
2022-10-18T15:56:33.617Z,64.62
2022-10-18T15:59:04.284Z,64.64
2022-10-18T16:01:42.384Z,65.20
2022-10-18T16:04:19.745Z,65.35
2022-10-18T16:06:48.511Z,66.13
2022-10-18T16:09:19.614Z,66.73
2022-10-18T16:11:55.622Z,67.05
2022-10-18T16:14:26.820Z,67.40
2022-10-18T16:17:01.845Z,67.39
2022-10-18T16:19:31.730Z,67.67
2022-10-18T16:22:06.336Z,68.06
2022-10-18T16:24:35.815Z,68.58
2022-10-18T16:27:04.678Z,67.87
2022-10-18T16:29:33.459Z,67.99
2022-10-18T16:32:06.037Z,68.47
2022-10-18T16:34:35.662Z,68.64
2022-10-18T16:37:04.287Z,68.66
2022-10-18T16:39:35.210Z,69.32
2022-10-18T16:42:04.374Z,68.77
2022-10-18T16:44:32.898Z,69.50
2022-10-18T16:47:03.232Z,69.71
2022-10-18T16:49:31.957Z,68.95
2022-10-18T16:52:08.140Z,69.35
2022-10-18T16:54:38.654Z,69.18
2022-10-18T16:57:07.340Z,69.40
2022-10-18T16:59:35.926Z,69.64
2022-10-18T17:02:08.475Z,70.28
2022-10-18T17:04:36.975Z,69.76
2022-10-18T17:07:05.460Z,70.82
2022-10-18T17:09:34.439Z,70.41
2022-10-18T17:12:03.170Z,70.16
2022-10-18T17:14:34.244Z,70.87
2022-10-18T17:17:02.935Z,71.09
2022-10-18T17:19:32.076Z,71.19
2022-10-18T17:22:02.851Z,70.71
2022-10-18T17:24:31.671Z,70.92
2022-10-18T17:27:01.196Z,70.67
2022-10-18T17:29:29.643Z,71.46
2022-10-18T17:31:58.115Z,71.42
2022-10-18T17:34:26.744Z,71.82
2022-10-18T17:36:55.435Z,71.15
2022-10-18T17:39:24.096Z,72.12
2022-10-18T17:41:52.527Z,72.02
2022-10-18T17:44:21.647Z,71.57
2022-10-18T17:46:50.560Z,71.63
2022-10-18T17:49:19.261Z,71.88
2022-10-18T17:51:47.779Z,72.15
2022-10-18T17:54:16.606Z,72.49
2022-10-18T17:56:45.606Z,71.42
2022-10-18T17:59:14.126Z,71.70
2022-10-18T18:01:42.759Z,72.61
2022-10-18T18:07:50.392Z,72.33
2022-10-18T18:10:21.388Z,72.93
2022-10-18T18:12:49.893Z,72.37
2022-10-18T18:15:22.242Z,73.17
2022-10-18T18:17:58.517Z,73.00
2022-10-18T18:20:29.634Z,72.30
2022-10-18T18:22:58.403Z,72.28
2022-10-18T18:25:27.024Z,72.76
2022-10-18T18:27:56.143Z,73.07
2022-10-18T18:30:26.334Z,72.52
2022-10-18T18:32:54.893Z,73.43
2022-10-18T18:35:26.822Z,73.40
2022-10-18T18:37:55.448Z,73.99
2022-10-18T18:40:24.125Z,73.67
2022-10-18T18:43:07.260Z,73.49
2022-10-18T18:45:50.446Z,72.62
2022-10-18T18:48:22.615Z,73.55
2022-10-18T18:50:54.375Z,73.19
2022-10-18T18:53:28.634Z,72.81
2022-10-18T18:56:14.375Z,73.79
2022-10-18T18:58:43.809Z,73.58
2022-10-18T19:01:21.509Z,73.25
2022-10-18T19:03:55.310Z,73.76
2022-10-18T19:06:30.655Z,72.96
2022-10-18T19:09:02.275Z,73.04
2022-10-18T19:11:34.055Z,73.73
2022-10-18T19:14:04.276Z,73.76
2022-10-18T19:16:42.621Z,73.78
2022-10-18T19:19:13.884Z,73.84
2022-10-18T19:21:44.513Z,73.29
2022-10-18T19:24:15.303Z,74.17
2022-10-18T19:26:50.486Z,74.33
2022-10-18T19:29:25.339Z,73.76
2022-10-18T19:31:56.057Z,73.37
2022-10-18T19:34:26.553Z,74.17
2022-10-18T19:36:55.408Z,73.63
2022-10-18T19:39:27.380Z,74.17
2022-10-18T19:41:58.542Z,74.36
2022-10-18T19:44:30.774Z,74.61
2022-10-18T19:46:59.731Z,74.79
2022-10-18T19:49:28.471Z,73.92
2022-10-18T19:51:57.979Z,74.83
2022-10-18T19:54:27.466Z,74.75
2022-10-18T19:56:56.119Z,74.89
2022-10-18T19:59:24.898Z,74.83
2022-10-18T20:01:53.956Z,74.17
2022-10-18T20:04:22.765Z,73.90
2022-10-18T20:06:52.857Z,74.84
2022-10-18T20:09:22.872Z,75.21
2022-10-18T20:11:59.755Z,74.80
2022-10-18T20:14:28.575Z,74.22
2022-10-18T20:16:57.230Z,75.40
2022-10-18T20:19:25.976Z,75.51
2022-10-18T20:21:57.766Z,74.53
2022-10-18T20:24:26.910Z,74.79
2022-10-18T20:26:55.440Z,75.31
2022-10-18T20:29:26.237Z,74.63
2022-10-18T20:31:55.654Z,74.67
2022-10-18T20:34:27.870Z,74.70
2022-10-18T20:36:56.576Z,75.47
2022-10-18T20:39:26.919Z,74.97
2022-10-18T20:41:55.666Z,75.27
2022-10-18T20:44:30.338Z,75.78
2022-10-18T20:46:59.068Z,75.33
2022-10-18T20:49:28.215Z,74.81
2022-10-18T20:51:59.319Z,75.00
2022-10-18T20:54:28.317Z,75.59
2022-10-18T20:56:59.586Z,75.01
2022-10-18T20:59:28.456Z,75.64
2022-10-18T21:01:57.286Z,74.62
2022-10-18T21:04:25.948Z,75.39
2022-10-18T21:06:56.076Z,75.28
2022-10-18T21:09:24.872Z,75.32
2022-10-18T21:11:54.068Z,75.78
2022-10-18T21:14:24.116Z,75.80
2022-10-18T21:16:53.130Z,75.37
2022-10-18T21:19:23.914Z,76.07
2022-10-18T21:21:55.090Z,76.10
2022-10-18T21:24:26.094Z,76.02
2022-10-18T21:26:54.731Z,75.49
2022-10-18T21:29:24.437Z,76.47
2022-10-18T21:31:57.655Z,76.21
2022-10-18T21:34:26.329Z,76.22
2022-10-18T21:36:55.186Z,75.75
2022-10-18T21:41:58.010Z,76.58
2022-10-18T21:44:26.852Z,75.79
2022-10-18T21:46:56.458Z,76.10
2022-10-18T21:49:27.578Z,76.96
2022-10-18T21:51:56.218Z,76.35
2022-10-18T21:54:25.292Z,76.83
2022-10-18T21:56:53.816Z,75.76
2022-10-18T21:59:22.638Z,76.22
2022-10-18T22:01:52.830Z,76.49
2022-10-18T22:04:24.407Z,76.27
2022-10-18T22:06:53.464Z,76.87
2022-10-18T22:09:22.451Z,75.88
2022-10-18T22:11:53.649Z,76.28
2022-10-18T22:14:23.921Z,77.17
2022-10-18T22:16:52.680Z,76.97
2022-10-18T22:19:21.444Z,77.04
2022-10-18T22:21:51.146Z,76.65
2022-10-18T22:24:22.469Z,76.96
2022-10-18T22:26:51.915Z,76.57
2022-10-18T22:29:21.931Z,76.47
2022-10-18T22:31:53.992Z,76.36
2022-10-18T22:34:27.005Z,76.90
2022-10-18T22:36:56.105Z,76.55
2022-10-18T22:39:25.417Z,77.06
2022-10-18T22:41:56.060Z,76.38
2022-10-18T22:44:24.767Z,76.45
2022-10-18T22:46:53.616Z,76.76
2022-10-18T22:49:22.748Z,76.89
2022-10-18T22:51:51.582Z,77.15
2022-10-18T22:54:20.740Z,76.53
2022-10-18T22:56:49.662Z,77.13
2022-10-18T22:59:19.905Z,77.33
2022-10-18T23:01:48.473Z,76.81
2022-10-18T23:04:16.992Z,77.32
2022-10-18T23:06:46.752Z,76.46
2022-10-18T23:09:15.207Z,76.67
2022-10-18T23:11:47.569Z,77.23
2022-10-18T23:14:16.698Z,76.55
2022-10-18T23:16:45.399Z,77.10
2022-10-18T23:19:16.445Z,77.15
2022-10-18T23:21:45.043Z,77.21
2022-10-18T23:24:13.602Z,76.65
2022-10-18T23:26:42.210Z,76.65
2022-10-18T23:29:10.779Z,76.87
2022-10-18T23:31:39.472Z,76.92
2022-10-18T23:34:07.942Z,76.69
2022-10-18T23:36:37.104Z,76.87
2022-10-18T23:39:06.065Z,77.54
2022-10-18T23:41:35.285Z,77.67
2022-10-18T23:44:04.810Z,77.09
2022-10-18T23:46:33.259Z,77.09
2022-10-18T23:49:01.830Z,77.07
2022-10-18T23:51:30.336Z,77.48
2022-10-18T23:53:58.792Z,76.98
2022-10-18T23:56:27.389Z,76.97
2022-10-18T23:58:56.849Z,77.73
